sensor_id;sensor_type;location;lat;lon;timestamp;temperature;humidity
13472;DHT22;6808;49.444;11.034;2022-10-16T00:01:46;15.50;99.90
13472;DHT22;6808;49.444;11.034;2022-10-16T00:04:11;15.50;99.90
13472;DHT22;6808;49.444;11.034;2022-10-16T00:06:37;15.50;99.90
13472;DHT22;6808;49.444;11.034;2022-10-16T00:09:03;15.50;99.90
13472;DHT22;6808;49.444;11.034;2022-10-16T00:11:31;15.50;99.90
13472;DHT22;6808;49.444;11.034;2022-10-16T00:14:03;15.50;99.90
13472;DHT22;6808;49.444;11.034;2022-10-16T00:16:30;15.50;99.90
13472;DHT22;6808;49.444;11.034;2022-10-16T00:18:56;15.50;99.90
13472;DHT22;6808;49.444;11.034;2022-10-16T00:21:24;15.50;99.90
13472;DHT22;6808;49.444;11.034;2022-10-16T00:23:52;15.40;99.90
13472;DHT22;6808;49.444;11.034;2022-10-16T00:26:19;15.50;99.90
13472;DHT22;6808;49.444;11.034;2022-10-16T00:28:49;15.40;99.90
13472;DHT22;6808;49.444;11.034;2022-10-16T00:31:16;15.40;99.90
13472;DHT22;6808;49.444;11.034;2022-10-16T00:33:42;15.40;99.90
13472;DHT22;6808;49.444;11.034;2022-10-16T00:36:13;15.40;99.90
13472;DHT22;6808;49.444;11.034;2022-10-16T00:38:39;15.40;99.90
13472;DHT22;6808;49.444;11.034;2022-10-16T00:41:11;15.50;99.90
13472;DHT22;6808;49.444;11.034;2022-10-16T00:43:43;15.40;99.90
13472;DHT22;6808;49.444;11.034;2022-10-16T00:46:39;15.40;99.90
13472;DHT22;6808;49.444;11.034;2022-10-16T00:49:09;15.50;99.90
13472;DHT22;6808;49.444;11.034;2022-10-16T00:51:43;15.50;99.90
13472;DHT22;6808;49.444;11.034;2022-10-16T00:54:16;15.50;99.90
13472;DHT22;6808;49.444;11.034;2022-10-16T00:56:43;15.50;99.90
13472;DHT22;6808;49.444;11.034;2022-10-16T00:59:25;15.50;99.90
13472;DHT22;6808;49.444;11.034;2022-10-16T01:01:52;15.50;99.90
13472;DHT22;6808;49.444;11.034;2022-10-16T01:04:18;15.50;99.90
13472;DHT22;6808;49.444;11.034;2022-10-16T01:10:14;15.50;99.90
13472;DHT22;6808;49.444;11.034;2022-10-16T01:12:54;15.40;99.90
13472;DHT22;6808;49.444;11.034;2022-10-16T01:15:29;15.40;99.90
13472;DHT22;6808;49.444;11.034;2022-10-16T01:18:14;15.40;99.90
13472;DHT22;6808;49.444;11.034;2022-10-16T01:28:51;15.40;99.90
13472;DHT22;6808;49.444;11.034;2022-10-16T01:31:22;15.40;99.90
13472;DHT22;6808;49.444;11.034;2022-10-16T01:33:59;15.50;99.90
13472;DHT22;6808;49.444;11.034;2022-10-16T01:36:35;15.20;99.90
13472;DHT22;6808;49.444;11.034;2022-10-16T01:39:03;15.30;99.90
13472;DHT22;6808;49.444;11.034;2022-10-16T01:41:46;15.30;99.90
13472;DHT22;6808;49.444;11.034;2022-10-16T01:44:19;15.30;99.90
13472;DHT22;6808;49.444;11.034;2022-10-16T01:46:48;15.30;99.90
13472;DHT22;6808;49.444;11.034;2022-10-16T01:49:14;15.30;99.90
13472;DHT22;6808;49.444;11.034;2022-10-16T01:51:45;15.30;99.90
13472;DHT22;6808;49.444;11.034;2022-10-16T01:54:12;15.30;99.90
13472;DHT22;6808;49.444;11.034;2022-10-16T01:56:39;15.30;99.90
13472;DHT22;6808;49.444;11.034;2022-10-16T01:59:18;15.30;99.90
13472;DHT22;6808;49.444;11.034;2022-10-16T02:01:48;15.30;99.90
13472;DHT22;6808;49.444;11.034;2022-10-16T02:04:24;15.30;99.90
13472;DHT22;6808;49.444;11.034;2022-10-16T02:06:52;15.30;99.90
13472;DHT22;6808;49.444;11.034;2022-10-16T02:09:19;15.30;99.90
13472;DHT22;6808;49.444;11.034;2022-10-16T02:11:45;15.30;99.90
13472;DHT22;6808;49.444;11.034;2022-10-16T02:14:10;15.30;99.90
13472;DHT22;6808;49.444;11.034;2022-10-16T02:16:41;15.30;99.90
13472;DHT22;6808;49.444;11.034;2022-10-16T02:19:08;15.30;99.90
13472;DHT22;6808;49.444;11.034;2022-10-16T02:22:04;15.40;99.90
13472;DHT22;6808;49.444;11.034;2022-10-16T02:27:17;15.40;99.90
13472;DHT22;6808;49.444;11.034;2022-10-16T02:29:48;15.40;99.90
13472;DHT22;6808;49.444;11.034;2022-10-16T02:32:19;15.30;99.90
13472;DHT22;6808;49.444;11.034;2022-10-16T02:34:48;15.30;99.90
13472;DHT22;6808;49.444;11.034;2022-10-16T02:37:14;15.30;99.90
13472;DHT22;6808;49.444;11.034;2022-10-16T02:39:41;15.30;99.90
13472;DHT22;6808;49.444;11.034;2022-10-16T02:42:13;15.30;99.90
13472;DHT22;6808;49.444;11.034;2022-10-16T02:44:39;15.30;99.90
13472;DHT22;6808;49.444;11.034;2022-10-16T02:47:05;15.30;99.90
13472;DHT22;6808;49.444;11.034;2022-10-16T02:49:30;15.30;99.90
13472;DHT22;6808;49.444;11.034;2022-10-16T02:51:56;15.30;99.90
13472;DHT22;6808;49.444;11.034;2022-10-16T02:54:22;15.30;99.90
13472;DHT22;6808;49.444;11.034;2022-10-16T02:56:47;15.30;99.90
13472;DHT22;6808;49.444;11.034;2022-10-16T02:59:13;15.40;99.90
13472;DHT22;6808;49.444;11.034;2022-10-16T03:01:38;15.30;99.90
13472;DHT22;6808;49.444;11.034;2022-10-16T03:04:04;15.30;99.90
13472;DHT22;6808;49.444;11.034;2022-10-16T03:06:29;15.30;99.90
13472;DHT22;6808;49.444;11.034;2022-10-16T03:08:55;15.30;99.90
13472;DHT22;6808;49.444;11.034;2022-10-16T03:11:20;15.30;99.90
13472;DHT22;6808;49.444;11.034;2022-10-16T03:13:46;15.30;99.90
13472;DHT22;6808;49.444;11.034;2022-10-16T03:16:12;15.30;99.90
13472;DHT22;6808;49.444;11.034;2022-10-16T03:18:37;15.20;99.90
13472;DHT22;6808;49.444;11.034;2022-10-16T03:21:03;15.30;99.90
13472;DHT22;6808;49.444;11.034;2022-10-16T03:23:29;15.30;99.90
13472;DHT22;6808;49.444;11.034;2022-10-16T03:25:55;15.30;99.90
13472;DHT22;6808;49.444;11.034;2022-10-16T03:28:21;15.30;99.90
13472;DHT22;6808;49.444;11.034;2022-10-16T03:30:46;15.30;99.90
13472;DHT22;6808;49.444;11.034;2022-10-16T03:33:12;15.30;99.90
13472;DHT22;6808;49.444;11.034;2022-10-16T03:35:37;15.30;99.90
13472;DHT22;6808;49.444;11.034;2022-10-16T03:38:03;15.20;99.90
13472;DHT22;6808;49.444;11.034;2022-10-16T03:40:29;15.20;99.90
13472;DHT22;6808;49.444;11.034;2022-10-16T03:42:56;15.20;99.90
13472;DHT22;6808;49.444;11.034;2022-10-16T03:45:22;15.20;99.90
13472;DHT22;6808;49.444;11.034;2022-10-16T03:47:48;15.20;99.90
13472;DHT22;6808;49.444;11.034;2022-10-16T03:50:14;15.20;99.90
13472;DHT22;6808;49.444;11.034;2022-10-16T03:52:39;15.20;99.90
13472;DHT22;6808;49.444;11.034;2022-10-16T03:55:05;15.20;99.90
13472;DHT22;6808;49.444;11.034;2022-10-16T03:57:31;15.20;99.90
13472;DHT22;6808;49.444;11.034;2022-10-16T03:59:57;15.20;99.90
13472;DHT22;6808;49.444;11.034;2022-10-16T04:02:22;15.20;99.90
13472;DHT22;6808;49.444;11.034;2022-10-16T04:04:48;15.20;99.90
13472;DHT22;6808;49.444;11.034;2022-10-16T04:07:13;15.20;99.90
13472;DHT22;6808;49.444;11.034;2022-10-16T04:09:39;15.20;99.90
13472;DHT22;6808;49.444;11.034;2022-10-16T04:12:05;15.20;99.90
13472;DHT22;6808;49.444;11.034;2022-10-16T04:14:30;15.20;99.90
13472;DHT22;6808;49.444;11.034;2022-10-16T04:16:56;15.20;99.90
13472;DHT22;6808;49.444;11.034;2022-10-16T04:19:21;15.20;99.90
13472;DHT22;6808;49.444;11.034;2022-10-16T04:21:47;15.20;99.90
13472;DHT22;6808;49.444;11.034;2022-10-16T04:24:12;15.20;99.90
13472;DHT22;6808;49.444;11.034;2022-10-16T04:26:38;15.10;99.90
13472;DHT22;6808;49.444;11.034;2022-10-16T04:29:04;15.20;99.90
13472;DHT22;6808;49.444;11.034;2022-10-16T04:31:29;15.10;99.90
13472;DHT22;6808;49.444;11.034;2022-10-16T04:33:55;15.10;99.90
13472;DHT22;6808;49.444;11.034;2022-10-16T04:36:20;15.10;99.90
13472;DHT22;6808;49.444;11.034;2022-10-16T04:38:46;15.10;99.90
13472;DHT22;6808;49.444;11.034;2022-10-16T04:41:12;15.10;99.90
13472;DHT22;6808;49.444;11.034;2022-10-16T04:43:37;15.20;99.90
13472;DHT22;6808;49.444;11.034;2022-10-16T04:46:03;15.20;99.90
13472;DHT22;6808;49.444;11.034;2022-10-16T04:48:30;15.20;99.90
13472;DHT22;6808;49.444;11.034;2022-10-16T04:50:56;15.20;99.90
13472;DHT22;6808;49.444;11.034;2022-10-16T04:53:21;15.20;99.90
13472;DHT22;6808;49.444;11.034;2022-10-16T04:55:47;15.10;99.90
13472;DHT22;6808;49.444;11.034;2022-10-16T04:58:13;15.10;99.90
13472;DHT22;6808;49.444;11.034;2022-10-16T05:00:38;15.10;99.90
13472;DHT22;6808;49.444;11.034;2022-10-16T05:03:04;15.10;99.90
13472;DHT22;6808;49.444;11.034;2022-10-16T05:05:34;15.00;99.90
13472;DHT22;6808;49.444;11.034;2022-10-16T05:08:00;15.10;99.90
13472;DHT22;6808;49.444;11.034;2022-10-16T05:10:26;15.10;99.90
13472;DHT22;6808;49.444;11.034;2022-10-16T05:12:51;15.10;99.90
13472;DHT22;6808;49.444;11.034;2022-10-16T05:15:17;15.20;99.90
13472;DHT22;6808;49.444;11.034;2022-10-16T05:17:43;15.10;99.90
13472;DHT22;6808;49.444;11.034;2022-10-16T05:20:09;15.10;99.90
13472;DHT22;6808;49.444;11.034;2022-10-16T05:22:35;15.10;99.90
13472;DHT22;6808;49.444;11.034;2022-10-16T05:25:00;15.10;99.90
13472;DHT22;6808;49.444;11.034;2022-10-16T05:27:26;15.10;99.90
13472;DHT22;6808;49.444;11.034;2022-10-16T05:29:52;15.10;99.90
13472;DHT22;6808;49.444;11.034;2022-10-16T05:32:18;15.10;99.90
13472;DHT22;6808;49.444;11.034;2022-10-16T05:34:44;15.10;99.90
13472;DHT22;6808;49.444;11.034;2022-10-16T05:37:11;15.00;99.90
13472;DHT22;6808;49.444;11.034;2022-10-16T05:39:40;15.00;99.90
13472;DHT22;6808;49.444;11.034;2022-10-16T05:42:06;15.00;99.90
13472;DHT22;6808;49.444;11.034;2022-10-16T05:44:31;15.10;99.90
13472;DHT22;6808;49.444;11.034;2022-10-16T05:46:57;15.00;99.90
13472;DHT22;6808;49.444;11.034;2022-10-16T05:49:23;15.10;99.90
13472;DHT22;6808;49.444;11.034;2022-10-16T05:51:48;15.10;99.90
13472;DHT22;6808;49.444;11.034;2022-10-16T05:54:14;15.10;99.90
13472;DHT22;6808;49.444;11.034;2022-10-16T05:56:40;15.00;99.90
13472;DHT22;6808;49.444;11.034;2022-10-16T05:59:05;15.10;99.90
13472;DHT22;6808;49.444;11.034;2022-10-16T06:01:31;15.10;99.90
13472;DHT22;6808;49.444;11.034;2022-10-16T06:03:57;15.10;99.90
13472;DHT22;6808;49.444;11.034;2022-10-16T06:06:25;15.10;99.90
13472;DHT22;6808;49.444;11.034;2022-10-16T06:08:52;15.10;99.90
13472;DHT22;6808;49.444;11.034;2022-10-16T06:11:24;15.10;99.90
13472;DHT22;6808;49.444;11.034;2022-10-16T06:13:51;15.10;99.90
13472;DHT22;6808;49.444;11.034;2022-10-16T06:16:17;15.10;99.90
13472;DHT22;6808;49.444;11.034;2022-10-16T06:18:43;15.10;99.90
13472;DHT22;6808;49.444;11.034;2022-10-16T06:21:14;15.10;99.90
13472;DHT22;6808;49.444;11.034;2022-10-16T06:23:41;15.10;99.90
13472;DHT22;6808;49.444;11.034;2022-10-16T06:26:12;15.20;99.90
13472;DHT22;6808;49.444;11.034;2022-10-16T06:28:38;15.10;99.90
13472;DHT22;6808;49.444;11.034;2022-10-16T06:31:05;15.10;99.90
13472;DHT22;6808;49.444;11.034;2022-10-16T06:33:31;15.10;99.90
13472;DHT22;6808;49.444;11.034;2022-10-16T06:36:05;15.20;99.90
13472;DHT22;6808;49.444;11.034;2022-10-16T06:38:31;15.10;99.90
13472;DHT22;6808;49.444;11.034;2022-10-16T06:40:57;15.20;99.90
13472;DHT22;6808;49.444;11.034;2022-10-16T06:43:23;15.30;99.90
13472;DHT22;6808;49.444;11.034;2022-10-16T06:45:56;15.20;99.90
13472;DHT22;6808;49.444;11.034;2022-10-16T06:48:24;15.30;99.90
13472;DHT22;6808;49.444;11.034;2022-10-16T06:53:34;15.30;99.90
13472;DHT22;6808;49.444;11.034;2022-10-16T06:56:08;15.40;99.90
13472;DHT22;6808;49.444;11.034;2022-10-16T06:58:33;15.40;99.90
13472;DHT22;6808;49.444;11.034;2022-10-16T07:00:59;15.30;99.90
13472;DHT22;6808;49.444;11.034;2022-10-16T07:03:25;15.50;99.90
13472;DHT22;6808;49.444;11.034;2022-10-16T07:05:50;15.40;99.90
13472;DHT22;6808;49.444;11.034;2022-10-16T07:08:16;15.40;99.90
13472;DHT22;6808;49.444;11.034;2022-10-16T07:10:41;15.40;99.90
13472;DHT22;6808;49.444;11.034;2022-10-16T07:13:07;15.40;99.90
13472;DHT22;6808;49.444;11.034;2022-10-16T07:15:33;15.50;99.90
13472;DHT22;6808;49.444;11.034;2022-10-16T07:17:59;15.50;99.90
13472;DHT22;6808;49.444;11.034;2022-10-16T07:20:25;15.50;99.90
13472;DHT22;6808;49.444;11.034;2022-10-16T07:22:52;15.50;99.90
13472;DHT22;6808;49.444;11.034;2022-10-16T07:25:17;15.50;99.90
13472;DHT22;6808;49.444;11.034;2022-10-16T07:27:43;15.50;99.90
13472;DHT22;6808;49.444;11.034;2022-10-16T07:30:09;15.50;99.90
13472;DHT22;6808;49.444;11.034;2022-10-16T07:32:34;15.50;99.90
13472;DHT22;6808;49.444;11.034;2022-10-16T07:35:00;15.50;99.90
13472;DHT22;6808;49.444;11.034;2022-10-16T07:37:26;15.50;99.90
13472;DHT22;6808;49.444;11.034;2022-10-16T07:39:51;15.50;99.90
13472;DHT22;6808;49.444;11.034;2022-10-16T07:42:17;15.60;99.90
13472;DHT22;6808;49.444;11.034;2022-10-16T07:44:42;15.60;99.90
13472;DHT22;6808;49.444;11.034;2022-10-16T07:47:08;15.60;99.90
13472;DHT22;6808;49.444;11.034;2022-10-16T07:49:34;15.50;99.90
13472;DHT22;6808;49.444;11.034;2022-10-16T07:51:59;15.60;99.90
13472;DHT22;6808;49.444;11.034;2022-10-16T07:54:25;15.70;99.90
13472;DHT22;6808;49.444;11.034;2022-10-16T07:56:51;15.80;99.90
13472;DHT22;6808;49.444;11.034;2022-10-16T07:59:16;15.70;99.90
13472;DHT22;6808;49.444;11.034;2022-10-16T08:01:42;15.80;99.90
13472;DHT22;6808;49.444;11.034;2022-10-16T08:04:08;15.70;99.90
13472;DHT22;6808;49.444;11.034;2022-10-16T08:06:39;15.80;99.90
13472;DHT22;6808;49.444;11.034;2022-10-16T08:09:06;15.80;99.90
13472;DHT22;6808;49.444;11.034;2022-10-16T08:11:32;15.90;99.90
13472;DHT22;6808;49.444;11.034;2022-10-16T08:13:57;15.80;99.90
13472;DHT22;6808;49.444;11.034;2022-10-16T08:16:23;15.90;99.90
13472;DHT22;6808;49.444;11.034;2022-10-16T08:18:49;15.90;99.90
13472;DHT22;6808;49.444;11.034;2022-10-16T08:21:18;15.90;99.90
13472;DHT22;6808;49.444;11.034;2022-10-16T08:23:44;15.90;99.90
13472;DHT22;6808;49.444;11.034;2022-10-16T08:26:10;16.00;99.90
13472;DHT22;6808;49.444;11.034;2022-10-16T08:28:36;15.90;99.90
13472;DHT22;6808;49.444;11.034;2022-10-16T08:31:13;15.90;99.90
13472;DHT22;6808;49.444;11.034;2022-10-16T08:33:41;15.90;99.90
13472;DHT22;6808;49.444;11.034;2022-10-16T08:36:08;16.00;99.90
13472;DHT22;6808;49.444;11.034;2022-10-16T08:38:34;16.00;99.90
13472;DHT22;6808;49.444;11.034;2022-10-16T08:49:35;16.20;99.90
13472;DHT22;6808;49.444;11.034;2022-10-16T08:52:02;16.20;99.90
13472;DHT22;6808;49.444;11.034;2022-10-16T08:54:43;16.20;99.90
13472;DHT22;6808;49.444;11.034;2022-10-16T08:57:21;16.30;99.90
13472;DHT22;6808;49.444;11.034;2022-10-16T08:59:47;16.30;99.90
13472;DHT22;6808;49.444;11.034;2022-10-16T09:02:41;16.40;99.90
13472;DHT22;6808;49.444;11.034;2022-10-16T09:05:41;16.50;99.90
13472;DHT22;6808;49.444;11.034;2022-10-16T09:10:51;16.70;99.90
13472;DHT22;6808;49.444;11.034;2022-10-16T09:13:26;16.70;99.90
13472;DHT22;6808;49.444;11.034;2022-10-16T09:16:22;16.70;99.90
13472;DHT22;6808;49.444;11.034;2022-10-16T09:19:16;16.80;99.90
13472;DHT22;6808;49.444;11.034;2022-10-16T09:21:45;16.90;99.90
13472;DHT22;6808;49.444;11.034;2022-10-16T09:24:21;17.00;99.90
13472;DHT22;6808;49.444;11.034;2022-10-16T09:26:47;17.00;99.90
13472;DHT22;6808;49.444;11.034;2022-10-16T09:29:14;17.10;99.90
13472;DHT22;6808;49.444;11.034;2022-10-16T09:31:42;17.20;99.90
13472;DHT22;6808;49.444;11.034;2022-10-16T09:36:45;17.20;99.90
13472;DHT22;6808;49.444;11.034;2022-10-16T09:39:11;17.10;99.90
13472;DHT22;6808;49.444;11.034;2022-10-16T09:41:39;17.10;99.90
13472;DHT22;6808;49.444;11.034;2022-10-16T09:44:27;17.10;99.90
13472;DHT22;6808;49.444;11.034;2022-10-16T09:47:26;17.10;99.90
13472;DHT22;6808;49.444;11.034;2022-10-16T09:49:53;17.10;99.90
13472;DHT22;6808;49.444;11.034;2022-10-16T09:52:22;17.10;99.90
13472;DHT22;6808;49.444;11.034;2022-10-16T09:55:16;17.10;99.90
13472;DHT22;6808;49.444;11.034;2022-10-16T09:57:51;17.10;99.90
13472;DHT22;6808;49.444;11.034;2022-10-16T10:00:17;17.00;99.90
13472;DHT22;6808;49.444;11.034;2022-10-16T10:02:44;17.10;99.90
13472;DHT22;6808;49.444;11.034;2022-10-16T10:05:27;17.10;99.90
13472;DHT22;6808;49.444;11.034;2022-10-16T10:08:01;17.10;99.90
13472;DHT22;6808;49.444;11.034;2022-10-16T10:10:33;17.20;99.90
13472;DHT22;6808;49.444;11.034;2022-10-16T10:13:00;17.20;99.90
13472;DHT22;6808;49.444;11.034;2022-10-16T10:15:29;17.30;99.90
13472;DHT22;6808;49.444;11.034;2022-10-16T10:17:58;17.40;99.90
13472;DHT22;6808;49.444;11.034;2022-10-16T10:22:49;17.50;99.90
13472;DHT22;6808;49.444;11.034;2022-10-16T10:33:47;17.80;99.90
13472;DHT22;6808;49.444;11.034;2022-10-16T10:36:27;17.80;99.90
13472;DHT22;6808;49.444;11.034;2022-10-16T10:46:51;18.00;99.90
13472;DHT22;6808;49.444;11.034;2022-10-16T10:49:36;18.10;99.90
13472;DHT22;6808;49.444;11.034;2022-10-16T10:52:53;18.10;99.90
13472;DHT22;6808;49.444;11.034;2022-10-16T10:55:45;18.30;99.90
13472;DHT22;6808;49.444;11.034;2022-10-16T11:01:08;18.40;99.90
13472;DHT22;6808;49.444;11.034;2022-10-16T11:06:40;18.50;99.90
13472;DHT22;6808;49.444;11.034;2022-10-16T11:12:11;18.50;99.90
13472;DHT22;6808;49.444;11.034;2022-10-16T11:14:46;18.60;99.90
13472;DHT22;6808;49.444;11.034;2022-10-16T11:17:19;18.60;99.90
13472;DHT22;6808;49.444;11.034;2022-10-16T11:22:23;18.80;99.90
13472;DHT22;6808;49.444;11.034;2022-10-16T11:25:22;18.80;99.90
13472;DHT22;6808;49.444;11.034;2022-10-16T11:30:50;18.80;99.90
13472;DHT22;6808;49.444;11.034;2022-10-16T11:39:14;18.90;99.90
13472;DHT22;6808;49.444;11.034;2022-10-16T11:41:34;19.00;99.90
13472;DHT22;6808;49.444;11.034;2022-10-16T11:49:41;19.20;99.90
13472;DHT22;6808;49.444;11.034;2022-10-16T11:52:44;19.20;99.90
13472;DHT22;6808;49.444;11.034;2022-10-16T11:55:17;19.50;99.90
13472;DHT22;6808;49.444;11.034;2022-10-16T11:57:51;19.60;99.90
13472;DHT22;6808;49.444;11.034;2022-10-16T12:00:27;19.60;99.90
13472;DHT22;6808;49.444;11.034;2022-10-16T12:03:29;19.70;99.90
13472;DHT22;6808;49.444;11.034;2022-10-16T12:08:59;19.70;99.90
13472;DHT22;6808;49.444;11.034;2022-10-16T12:16:57;20.00;99.90
13472;DHT22;6808;49.444;11.034;2022-10-16T12:19:29;20.00;99.90
13472;DHT22;6808;49.444;11.034;2022-10-16T12:22:00;20.20;99.90
13472;DHT22;6808;49.444;11.034;2022-10-16T12:24:38;20.30;99.90
13472;DHT22;6808;49.444;11.034;2022-10-16T12:27:25;20.40;99.90
13472;DHT22;6808;49.444;11.034;2022-10-16T12:30:00;20.50;99.90
13472;DHT22;6808;49.444;11.034;2022-10-16T12:34:58;20.70;99.90
13472;DHT22;6808;49.444;11.034;2022-10-16T12:37:27;20.60;99.90
13472;DHT22;6808;49.444;11.034;2022-10-16T12:39:55;20.60;99.90
13472;DHT22;6808;49.444;11.034;2022-10-16T12:44:53;20.50;99.90
13472;DHT22;6808;49.444;11.034;2022-10-16T12:49:57;20.40;99.90
13472;DHT22;6808;49.444;11.034;2022-10-16T12:54:59;20.30;99.90
13472;DHT22;6808;49.444;11.034;2022-10-16T13:00:32;20.40;99.90
13472;DHT22;6808;49.444;11.034;2022-10-16T13:05:59;20.50;99.90
13472;DHT22;6808;49.444;11.034;2022-10-16T13:08:39;20.50;99.90
13472;DHT22;6808;49.444;11.034;2022-10-16T13:11:48;20.60;99.90
13472;DHT22;6808;49.444;11.034;2022-10-16T13:17:11;20.70;99.90
13472;DHT22;6808;49.444;11.034;2022-10-16T13:19:50;20.90;99.90
13472;DHT22;6808;49.444;11.034;2022-10-16T13:27:56;21.30;99.90
13472;DHT22;6808;49.444;11.034;2022-10-16T13:30:25;21.30;99.90
13472;DHT22;6808;49.444;11.034;2022-10-16T13:33:20;21.30;99.90
13472;DHT22;6808;49.444;11.034;2022-10-16T13:35:52;21.20;99.90
13472;DHT22;6808;49.444;11.034;2022-10-16T13:38:20;21.20;99.90
13472;DHT22;6808;49.444;11.034;2022-10-16T13:40:52;21.00;99.90
13472;DHT22;6808;49.444;11.034;2022-10-16T13:43:20;21.00;99.90
13472;DHT22;6808;49.444;11.034;2022-10-16T13:48:20;21.10;99.90
13472;DHT22;6808;49.444;11.034;2022-10-16T13:50:45;21.20;99.90
13472;DHT22;6808;49.444;11.034;2022-10-16T13:53:14;21.30;99.90
13472;DHT22;6808;49.444;11.034;2022-10-16T13:55:40;21.40;99.90
13472;DHT22;6808;49.444;11.034;2022-10-16T13:58:13;21.30;99.90
13472;DHT22;6808;49.444;11.034;2022-10-16T14:00:39;21.30;99.90
13472;DHT22;6808;49.444;11.034;2022-10-16T14:03:13;21.40;99.90
13472;DHT22;6808;49.444;11.034;2022-10-16T14:05:48;21.40;99.90
13472;DHT22;6808;49.444;11.034;2022-10-16T14:08:15;21.40;99.90
13472;DHT22;6808;49.444;11.034;2022-10-16T14:10:40;21.30;99.90
13472;DHT22;6808;49.444;11.034;2022-10-16T14:13:07;21.30;99.90
13472;DHT22;6808;49.444;11.034;2022-10-16T14:15:35;21.30;99.90
13472;DHT22;6808;49.444;11.034;2022-10-16T14:18:01;21.30;99.90
13472;DHT22;6808;49.444;11.034;2022-10-16T14:20:30;21.30;99.90
13472;DHT22;6808;49.444;11.034;2022-10-16T14:25:47;21.30;99.90
13472;DHT22;6808;49.444;11.034;2022-10-16T14:28:21;21.20;99.90
13472;DHT22;6808;49.444;11.034;2022-10-16T14:30:55;21.30;99.90
13472;DHT22;6808;49.444;11.034;2022-10-16T14:38:39;21.00;99.90
13472;DHT22;6808;49.444;11.034;2022-10-16T14:41:05;20.90;99.90
13472;DHT22;6808;49.444;11.034;2022-10-16T14:43:39;20.70;99.90
13472;DHT22;6808;49.444;11.034;2022-10-16T14:46:17;20.70;99.90
13472;DHT22;6808;49.444;11.034;2022-10-16T14:48:45;20.60;99.90
13472;DHT22;6808;49.444;11.034;2022-10-16T14:51:15;20.50;99.90
13472;DHT22;6808;49.444;11.034;2022-10-16T14:53:40;20.50;99.90
13472;DHT22;6808;49.444;11.034;2022-10-16T14:56:08;20.40;99.90
13472;DHT22;6808;49.444;11.034;2022-10-16T14:58:35;20.40;99.90
13472;DHT22;6808;49.444;11.034;2022-10-16T15:01:00;20.40;99.90
13472;DHT22;6808;49.444;11.034;2022-10-16T15:03:26;20.30;99.90
13472;DHT22;6808;49.444;11.034;2022-10-16T15:05:52;20.30;99.90
13472;DHT22;6808;49.444;11.034;2022-10-16T15:08:17;20.40;99.90
13472;DHT22;6808;49.444;11.034;2022-10-16T15:10:43;20.30;99.90
13472;DHT22;6808;49.444;11.034;2022-10-16T15:13:12;20.30;99.90
13472;DHT22;6808;49.444;11.034;2022-10-16T15:15:47;20.30;99.90
13472;DHT22;6808;49.444;11.034;2022-10-16T15:18:14;20.30;99.90
13472;DHT22;6808;49.444;11.034;2022-10-16T15:20:47;20.20;99.90
13472;DHT22;6808;49.444;11.034;2022-10-16T15:23:16;20.20;99.90
13472;DHT22;6808;49.444;11.034;2022-10-16T15:25:53;20.20;99.90
13472;DHT22;6808;49.444;11.034;2022-10-16T15:28:20;20.40;99.90
13472;DHT22;6808;49.444;11.034;2022-10-16T15:30:48;20.20;99.90
13472;DHT22;6808;49.444;11.034;2022-10-16T15:33:20;20.20;99.90
13472;DHT22;6808;49.444;11.034;2022-10-16T15:35:47;20.10;99.90
13472;DHT22;6808;49.444;11.034;2022-10-16T15:38:13;20.00;99.90
13472;DHT22;6808;49.444;11.034;2022-10-16T15:40:39;20.00;99.90
13472;DHT22;6808;49.444;11.034;2022-10-16T15:43:05;19.90;99.90
13472;DHT22;6808;49.444;11.034;2022-10-16T15:45:31;19.90;99.90
13472;DHT22;6808;49.444;11.034;2022-10-16T15:47:57;19.80;99.90
13472;DHT22;6808;49.444;11.034;2022-10-16T15:50:22;19.70;99.90
13472;DHT22;6808;49.444;11.034;2022-10-16T15:52:49;19.70;99.90
13472;DHT22;6808;49.444;11.034;2022-10-16T15:55:15;19.60;99.90
13472;DHT22;6808;49.444;11.034;2022-10-16T15:57:41;19.60;99.90
13472;DHT22;6808;49.444;11.034;2022-10-16T16:00:10;19.50;99.90
13472;DHT22;6808;49.444;11.034;2022-10-16T16:02:36;19.50;99.90
13472;DHT22;6808;49.444;11.034;2022-10-16T16:05:02;19.40;99.90
13472;DHT22;6808;49.444;11.034;2022-10-16T16:07:32;19.40;99.90
13472;DHT22;6808;49.444;11.034;2022-10-16T16:09:57;19.40;99.90
13472;DHT22;6808;49.444;11.034;2022-10-16T16:12:23;19.40;99.90
13472;DHT22;6808;49.444;11.034;2022-10-16T16:14:48;19.30;99.90
13472;DHT22;6808;49.444;11.034;2022-10-16T16:17:14;19.30;99.90
13472;DHT22;6808;49.444;11.034;2022-10-16T16:19:40;19.30;99.90
13472;DHT22;6808;49.444;11.034;2022-10-16T16:22:05;19.20;99.90
13472;DHT22;6808;49.444;11.034;2022-10-16T16:24:31;19.20;99.90
13472;DHT22;6808;49.444;11.034;2022-10-16T16:26:56;19.20;99.90
13472;DHT22;6808;49.444;11.034;2022-10-16T16:29:22;19.10;99.90
13472;DHT22;6808;49.444;11.034;2022-10-16T16:31:48;19.10;99.90
13472;DHT22;6808;49.444;11.034;2022-10-16T16:34:14;19.00;99.90
13472;DHT22;6808;49.444;11.034;2022-10-16T16:36:39;19.00;99.90
13472;DHT22;6808;49.444;11.034;2022-10-16T16:39:06;19.00;99.90
13472;DHT22;6808;49.444;11.034;2022-10-16T16:41:33;19.00;99.90
13472;DHT22;6808;49.444;11.034;2022-10-16T16:44:06;18.90;99.90
13472;DHT22;6808;49.444;11.034;2022-10-16T16:46:33;18.90;99.90
13472;DHT22;6808;49.444;11.034;2022-10-16T16:48:59;18.80;99.90
13472;DHT22;6808;49.444;11.034;2022-10-16T16:51:25;18.80;99.90
13472;DHT22;6808;49.444;11.034;2022-10-16T16:53:53;18.80;99.90
13472;DHT22;6808;49.444;11.034;2022-10-16T16:56:19;18.80;99.90
13472;DHT22;6808;49.444;11.034;2022-10-16T16:58:46;18.80;99.90
13472;DHT22;6808;49.444;11.034;2022-10-16T17:01:13;18.70;99.90
13472;DHT22;6808;49.444;11.034;2022-10-16T17:03:42;18.70;99.90
13472;DHT22;6808;49.444;11.034;2022-10-16T17:06:10;18.70;99.90
13472;DHT22;6808;49.444;11.034;2022-10-16T17:08:37;18.70;99.90
13472;DHT22;6808;49.444;11.034;2022-10-16T17:11:04;18.70;99.90
13472;DHT22;6808;49.444;11.034;2022-10-16T17:13:32;18.60;99.90
13472;DHT22;6808;49.444;11.034;2022-10-16T17:16:00;18.60;99.90
13472;DHT22;6808;49.444;11.034;2022-10-16T17:18:26;18.70;99.90
13472;DHT22;6808;49.444;11.034;2022-10-16T17:20:51;18.60;99.90
13472;DHT22;6808;49.444;11.034;2022-10-16T17:23:18;18.60;99.90
13472;DHT22;6808;49.444;11.034;2022-10-16T17:25:45;18.70;99.90
13472;DHT22;6808;49.444;11.034;2022-10-16T17:28:12;18.70;99.90
13472;DHT22;6808;49.444;11.034;2022-10-16T17:30:41;18.80;99.90
13472;DHT22;6808;49.444;11.034;2022-10-16T17:33:08;18.80;99.90
13472;DHT22;6808;49.444;11.034;2022-10-16T17:35:41;18.90;99.90
13472;DHT22;6808;49.444;11.034;2022-10-16T17:38:08;18.80;99.90
13472;DHT22;6808;49.444;11.034;2022-10-16T17:40:34;18.80;99.90
13472;DHT22;6808;49.444;11.034;2022-10-16T17:43:01;18.70;99.90